sensor_id;sensor_type;location;lat;lon;timestamp;P1;durP1;ratioP1;P2;durP2;ratioP2
53044;SDS011;38930;52.766;6.884;2022-09-09T00:03:44;7.60;;;5.88;;
53044;SDS011;38930;52.766;6.884;2022-09-09T00:06:23;17.33;;;6.93;;
53044;SDS011;38930;52.766;6.884;2022-09-09T00:09:13;12.27;;;5.82;;
53044;SDS011;38930;52.766;6.884;2022-09-09T00:14:16;10.05;;;5.45;;
53044;SDS011;38930;52.766;6.884;2022-09-09T00:17:04;7.03;;;4.75;;
53044;SDS011;38930;52.766;6.884;2022-09-09T00:20:04;9.10;;;4.85;;
53044;SDS011;38930;52.766;6.884;2022-09-09T00:22:37;21.35;;;5.55;;
53044;SDS011;38930;52.766;6.884;2022-09-09T00:25:10;6.45;;;4.75;;
53044;SDS011;38930;52.766;6.884;2022-09-09T00:27:44;7.07;;;4.95;;
53044;SDS011;38930;52.766;6.884;2022-09-09T00:32:49;9.55;;;5.20;;
53044;SDS011;38930;52.766;6.884;2022-09-09T00:35:32;11.10;;;5.05;;
53044;SDS011;38930;52.766;6.884;2022-09-09T00:38:03;6.88;;;5.28;;
53044;SDS011;38930;52.766;6.884;2022-09-09T00:43:24;6.95;;;4.82;;
53044;SDS011;38930;52.766;6.884;2022-09-09T00:51:45;7.00;;;4.78;;
53044;SDS011;38930;52.766;6.884;2022-09-09T00:54:22;9.25;;;5.78;;
53044;SDS011;38930;52.766;6.884;2022-09-09T00:57:14;9.95;;;5.03;;
53044;SDS011;38930;52.766;6.884;2022-09-09T01:05:41;9.43;;;6.03;;
53044;SDS011;38930;52.766;6.884;2022-09-09T01:08:25;12.02;;;5.85;;
53044;SDS011;38930;52.766;6.884;2022-09-09T01:10:56;9.07;;;5.50;;
53044;SDS011;38930;52.766;6.884;2022-09-09T01:13:28;9.48;;;5.70;;
53044;SDS011;38930;52.766;6.884;2022-09-09T01:15:59;7.60;;;5.15;;
53044;SDS011;38930;52.766;6.884;2022-09-09T01:18:27;7.30;;;5.22;;
53044;SDS011;38930;52.766;6.884;2022-09-09T01:26:47;7.50;;;5.40;;
53044;SDS011;38930;52.766;6.884;2022-09-09T01:29:16;7.55;;;5.05;;
53044;SDS011;38930;52.766;6.884;2022-09-09T01:34:18;6.20;;;5.13;;
53044;SDS011;38930;52.766;6.884;2022-09-09T01:36:45;8.27;;;5.87;;
53044;SDS011;38930;52.766;6.884;2022-09-09T01:39:17;10.57;;;5.85;;
53044;SDS011;38930;52.766;6.884;2022-09-09T01:41:44;11.45;;;5.43;;
53044;SDS011;38930;52.766;6.884;2022-09-09T01:44:09;7.63;;;5.22;;
53044;SDS011;38930;52.766;6.884;2022-09-09T01:46:36;6.78;;;5.25;;
53044;SDS011;38930;52.766;6.884;2022-09-09T01:49:02;8.17;;;6.10;;
53044;SDS011;38930;52.766;6.884;2022-09-09T01:51:30;7.35;;;5.47;;
53044;SDS011;38930;52.766;6.884;2022-09-09T01:53:55;9.43;;;5.60;;
53044;SDS011;38930;52.766;6.884;2022-09-09T01:56:25;10.07;;;6.60;;
53044;SDS011;38930;52.766;6.884;2022-09-09T02:04:36;9.02;;;5.30;;
53044;SDS011;38930;52.766;6.884;2022-09-09T02:07:27;7.43;;;6.03;;
53044;SDS011;38930;52.766;6.884;2022-09-09T02:10:02;7.53;;;5.15;;
53044;SDS011;38930;52.766;6.884;2022-09-09T02:12:42;7.47;;;5.13;;
53044;SDS011;38930;52.766;6.884;2022-09-09T02:15:30;9.98;;;6.03;;
53044;SDS011;38930;52.766;6.884;2022-09-09T02:18:01;9.23;;;5.95;;
53044;SDS011;38930;52.766;6.884;2022-09-09T02:20:32;9.40;;;6.20;;
53044;SDS011;38930;52.766;6.884;2022-09-09T02:23:01;9.13;;;5.55;;
53044;SDS011;38930;52.766;6.884;2022-09-09T02:25:28;7.68;;;5.57;;
53044;SDS011;38930;52.766;6.884;2022-09-09T02:27:55;8.98;;;6.50;;
53044;SDS011;38930;52.766;6.884;2022-09-09T02:30:23;11.45;;;6.28;;
53044;SDS011;38930;52.766;6.884;2022-09-09T02:32:50;10.65;;;6.78;;
53044;SDS011;38930;52.766;6.884;2022-09-09T02:35:22;11.40;;;6.60;;
53044;SDS011;38930;52.766;6.884;2022-09-09T02:37:50;10.35;;;7.32;;
53044;SDS011;38930;52.766;6.884;2022-09-09T02:40:19;10.50;;;7.28;;
53044;SDS011;38930;52.766;6.884;2022-09-09T02:42:46;12.50;;;7.53;;
53044;SDS011;38930;52.766;6.884;2022-09-09T02:45:15;10.98;;;6.53;;
53044;SDS011;38930;52.766;6.884;2022-09-09T02:47:47;11.98;;;7.80;;
53044;SDS011;38930;52.766;6.884;2022-09-09T02:53:17;11.18;;;7.03;;
53044;SDS011;38930;52.766;6.884;2022-09-09T02:55:46;8.02;;;6.68;;
53044;SDS011;38930;52.766;6.884;2022-09-09T02:58:19;8.73;;;6.40;;
53044;SDS011;38930;52.766;6.884;2022-09-09T03:00:47;8.93;;;6.18;;
53044;SDS011;38930;52.766;6.884;2022-09-09T03:03:14;7.38;;;6.00;;
53044;SDS011;38930;52.766;6.884;2022-09-09T03:05:41;10.25;;;6.78;;
53044;SDS011;38930;52.766;6.884;2022-09-09T03:10:34;10.05;;;5.93;;
53044;SDS011;38930;52.766;6.884;2022-09-09T03:13:00;9.47;;;5.97;;
53044;SDS011;38930;52.766;6.884;2022-09-09T03:15:26;7.97;;;5.45;;
53044;SDS011;38930;52.766;6.884;2022-09-09T03:17:55;7.10;;;5.07;;
53044;SDS011;38930;52.766;6.884;2022-09-09T03:20:22;8.05;;;4.47;;
53044;SDS011;38930;52.766;6.884;2022-09-09T03:22:49;5.85;;;3.85;;
53044;SDS011;38930;52.766;6.884;2022-09-09T03:25:14;5.77;;;3.17;;
53044;SDS011;38930;52.766;6.884;2022-09-09T03:27:40;4.30;;;2.93;;
53044;SDS011;38930;52.766;6.884;2022-09-09T03:30:06;6.20;;;2.83;;
53044;SDS011;38930;52.766;6.884;2022-09-09T03:32:32;4.25;;;2.00;;
53044;SDS011;38930;52.766;6.884;2022-09-09T03:34:58;3.83;;;1.93;;
53044;SDS011;38930;52.766;6.884;2022-09-09T03:37:23;4.50;;;1.80;;
53044;SDS011;38930;52.766;6.884;2022-09-09T03:39:49;3.60;;;1.70;;
53044;SDS011;38930;52.766;6.884;2022-09-09T03:42:15;3.75;;;2.50;;
53044;SDS011;38930;52.766;6.884;2022-09-09T03:44:44;4.28;;;2.53;;
53044;SDS011;38930;52.766;6.884;2022-09-09T03:47:12;4.88;;;2.97;;
53044;SDS011;38930;52.766;6.884;2022-09-09T03:49:38;5.95;;;3.40;;
53044;SDS011;38930;52.766;6.884;2022-09-09T03:52:03;8.10;;;4.07;;
53044;SDS011;38930;52.766;6.884;2022-09-09T03:54:29;8.37;;;5.70;;
53044;SDS011;38930;52.766;6.884;2022-09-09T03:56:54;8.75;;;5.47;;
53044;SDS011;38930;52.766;6.884;2022-09-09T03:59:20;7.97;;;6.70;;
53044;SDS011;38930;52.766;6.884;2022-09-09T04:01:46;12.20;;;7.47;;
53044;SDS011;38930;52.766;6.884;2022-09-09T04:04:12;10.37;;;7.60;;
53044;SDS011;38930;52.766;6.884;2022-09-09T04:06:37;11.02;;;7.95;;
53044;SDS011;38930;52.766;6.884;2022-09-09T04:09:03;10.85;;;8.63;;
53044;SDS011;38930;52.766;6.884;2022-09-09T04:11:29;10.13;;;8.65;;
53044;SDS011;38930;52.766;6.884;2022-09-09T04:13:54;12.20;;;8.48;;
53044;SDS011;38930;52.766;6.884;2022-09-09T04:16:20;13.50;;;9.93;;
53044;SDS011;38930;52.766;6.884;2022-09-09T04:18:45;11.23;;;9.33;;
53044;SDS011;38930;52.766;6.884;2022-09-09T04:21:12;11.18;;;9.13;;
53044;SDS011;38930;52.766;6.884;2022-09-09T04:23:37;13.00;;;9.10;;
53044;SDS011;38930;52.766;6.884;2022-09-09T04:26:04;11.73;;;9.20;;
53044;SDS011;38930;52.766;6.884;2022-09-09T04:28:31;12.25;;;8.70;;
53044;SDS011;38930;52.766;6.884;2022-09-09T04:31:09;19.05;;;10.18;;
53044;SDS011;38930;52.766;6.884;2022-09-09T04:33:39;9.57;;;8.10;;
53044;SDS011;38930;52.766;6.884;2022-09-09T04:36:05;11.63;;;9.03;;
53044;SDS011;38930;52.766;6.884;2022-09-09T04:38:31;11.25;;;8.52;;
53044;SDS011;38930;52.766;6.884;2022-09-09T04:40:57;10.32;;;8.85;;
53044;SDS011;38930;52.766;6.884;2022-09-09T04:43:23;12.25;;;9.07;;
53044;SDS011;38930;52.766;6.884;2022-09-09T04:45:50;13.25;;;8.48;;
53044;SDS011;38930;52.766;6.884;2022-09-09T04:48:17;9.68;;;8.55;;
53044;SDS011;38930;52.766;6.884;2022-09-09T04:50:43;11.13;;;8.95;;
53044;SDS011;38930;52.766;6.884;2022-09-09T04:53:09;12.02;;;9.00;;
53044;SDS011;38930;52.766;6.884;2022-09-09T04:55:34;10.48;;;8.75;;
53044;SDS011;38930;52.766;6.884;2022-09-09T04:58:04;12.63;;;8.60;;
53044;SDS011;38930;52.766;6.884;2022-09-09T05:00:30;10.52;;;8.18;;
53044;SDS011;38930;52.766;6.884;2022-09-09T05:02:56;12.77;;;8.30;;
53044;SDS011;38930;52.766;6.884;2022-09-09T05:05:21;8.82;;;7.85;;
53044;SDS011;38930;52.766;6.884;2022-09-09T05:07:47;11.10;;;7.75;;
53044;SDS011;38930;52.766;6.884;2022-09-09T05:10:13;11.43;;;8.25;;
53044;SDS011;38930;52.766;6.884;2022-09-09T05:12:40;11.80;;;7.95;;
53044;SDS011;38930;52.766;6.884;2022-09-09T05:15:05;8.70;;;7.03;;
53044;SDS011;38930;52.766;6.884;2022-09-09T05:17:32;8.27;;;6.43;;
53044;SDS011;38930;52.766;6.884;2022-09-09T05:19:58;8.10;;;5.95;;
53044;SDS011;38930;52.766;6.884;2022-09-09T05:22:24;9.55;;;6.93;;
53044;SDS011;38930;52.766;6.884;2022-09-09T05:24:50;9.53;;;7.30;;
53044;SDS011;38930;52.766;6.884;2022-09-09T05:27:16;11.23;;;8.05;;
53044;SDS011;38930;52.766;6.884;2022-09-09T05:29:44;11.48;;;7.50;;
53044;SDS011;38930;52.766;6.884;2022-09-09T05:32:10;10.63;;;7.82;;
53044;SDS011;38930;52.766;6.884;2022-09-09T05:34:36;11.20;;;7.70;;
53044;SDS011;38930;52.766;6.884;2022-09-09T05:37:05;10.80;;;7.60;;
53044;SDS011;38930;52.766;6.884;2022-09-09T05:39:32;7.90;;;6.95;;
53044;SDS011;38930;52.766;6.884;2022-09-09T05:41:58;9.18;;;7.18;;
53044;SDS011;38930;52.766;6.884;2022-09-09T05:44:24;11.70;;;8.37;;
53044;SDS011;38930;52.766;6.884;2022-09-09T05:46:52;9.27;;;7.38;;
53044;SDS011;38930;52.766;6.884;2022-09-09T05:49:19;10.25;;;7.70;;
53044;SDS011;38930;52.766;6.884;2022-09-09T05:51:45;8.07;;;7.27;;
53044;SDS011;38930;52.766;6.884;2022-09-09T05:54:11;8.95;;;7.07;;
53044;SDS011;38930;52.766;6.884;2022-09-09T05:56:40;9.43;;;7.15;;
53044;SDS011;38930;52.766;6.884;2022-09-09T05:59:06;11.43;;;7.27;;
53044;SDS011;38930;52.766;6.884;2022-09-09T06:01:32;9.13;;;7.30;;
53044;SDS011;38930;52.766;6.884;2022-09-09T06:04:00;8.27;;;7.03;;
53044;SDS011;38930;52.766;6.884;2022-09-09T06:06:27;8.02;;;6.43;;
53044;SDS011;38930;52.766;6.884;2022-09-09T06:09:04;9.15;;;6.43;;
53044;SDS011;38930;52.766;6.884;2022-09-09T06:11:31;8.35;;;6.88;;
53044;SDS011;38930;52.766;6.884;2022-09-09T06:13:59;11.60;;;6.82;;
53044;SDS011;38930;52.766;6.884;2022-09-09T06:16:26;7.88;;;7.07;;
53044;SDS011;38930;52.766;6.884;2022-09-09T06:18:53;9.15;;;6.63;;
53044;SDS011;38930;52.766;6.884;2022-09-09T06:23:48;8.10;;;6.50;;
53044;SDS011;38930;52.766;6.884;2022-09-09T06:26:16;10.38;;;6.70;;
53044;SDS011;38930;52.766;6.884;2022-09-09T06:28:44;8.05;;;7.25;;
53044;SDS011;38930;52.766;6.884;2022-09-09T06:33:37;8.88;;;6.40;;
53044;SDS011;38930;52.766;6.884;2022-09-09T06:36:16;10.52;;;6.85;;
53044;SDS011;38930;52.766;6.884;2022-09-09T06:38:43;13.35;;;6.80;;
53044;SDS011;38930;52.766;6.884;2022-09-09T06:41:10;8.93;;;7.27;;
53044;SDS011;38930;52.766;6.884;2022-09-09T06:43:37;8.85;;;5.90;;
53044;SDS011;38930;52.766;6.884;2022-09-09T06:48:34;7.68;;;6.50;;
53044;SDS011;38930;52.766;6.884;2022-09-09T06:51:04;9.02;;;7.40;;
53044;SDS011;38930;52.766;6.884;2022-09-09T06:53:31;9.43;;;6.95;;
53044;SDS011;38930;52.766;6.884;2022-09-09T06:55:59;8.57;;;6.65;;
53044;SDS011;38930;52.766;6.884;2022-09-09T06:58:27;8.35;;;7.15;;
53044;SDS011;38930;52.766;6.884;2022-09-09T07:01:00;8.82;;;6.55;;
53044;SDS011;38930;52.766;6.884;2022-09-09T07:03:30;10.65;;;7.15;;
53044;SDS011;38930;52.766;6.884;2022-09-09T07:05:56;11.30;;;6.72;;
53044;SDS011;38930;52.766;6.884;2022-09-09T07:08:22;9.97;;;7.57;;
53044;SDS011;38930;52.766;6.884;2022-09-09T07:10:49;10.20;;;7.00;;
53044;SDS011;38930;52.766;6.884;2022-09-09T07:13:18;8.10;;;6.80;;
53044;SDS011;38930;52.766;6.884;2022-09-09T07:15:50;7.93;;;6.72;;
53044;SDS011;38930;52.766;6.884;2022-09-09T07:18:16;7.73;;;6.57;;
53044;SDS011;38930;52.766;6.884;2022-09-09T07:20:41;7.03;;;6.10;;
53044;SDS011;38930;52.766;6.884;2022-09-09T07:23:07;8.00;;;6.20;;
53044;SDS011;38930;52.766;6.884;2022-09-09T07:25:32;7.82;;;5.70;;
53044;SDS011;38930;52.766;6.884;2022-09-09T07:27:58;7.28;;;5.97;;
53044;SDS011;38930;52.766;6.884;2022-09-09T07:30:23;6.77;;;6.10;;
53044;SDS011;38930;52.766;6.884;2022-09-09T07:32:50;6.57;;;5.80;;
53044;SDS011;38930;52.766;6.884;2022-09-09T07:35:16;8.77;;;6.47;;
53044;SDS011;38930;52.766;6.884;2022-09-09T07:37:42;8.17;;;5.70;;
53044;SDS011;38930;52.766;6.884;2022-09-09T07:40:08;7.05;;;5.40;;
53044;SDS011;38930;52.766;6.884;2022-09-09T07:42:35;11.60;;;6.53;;
53044;SDS011;38930;52.766;6.884;2022-09-09T07:47:28;7.25;;;5.95;;
53044;SDS011;38930;52.766;6.884;2022-09-09T07:49:54;8.53;;;6.50;;
53044;SDS011;38930;52.766;6.884;2022-09-09T07:52:20;8.33;;;5.93;;
53044;SDS011;38930;52.766;6.884;2022-09-09T07:54:46;8.32;;;5.72;;
53044;SDS011;38930;52.766;6.884;2022-09-09T07:57:12;10.70;;;6.03;;
53044;SDS011;38930;52.766;6.884;2022-09-09T07:59:37;10.33;;;5.70;;
53044;SDS011;38930;52.766;6.884;2022-09-09T08:02:03;10.57;;;6.70;;
53044;SDS011;38930;52.766;6.884;2022-09-09T08:04:28;9.80;;;5.80;;
53044;SDS011;38930;52.766;6.884;2022-09-09T08:06:57;8.47;;;5.37;;
53044;SDS011;38930;52.766;6.884;2022-09-09T08:09:24;8.70;;;5.00;;
53044;SDS011;38930;52.766;6.884;2022-09-09T08:11:53;6.88;;;5.22;;
53044;SDS011;38930;52.766;6.884;2022-09-09T08:14:21;8.20;;;5.15;;
53044;SDS011;38930;52.766;6.884;2022-09-09T08:16:48;8.25;;;5.15;;
53044;SDS011;38930;52.766;6.884;2022-09-09T08:19:14;8.18;;;4.70;;
53044;SDS011;38930;52.766;6.884;2022-09-09T08:21:41;10.10;;;4.90;;
53044;SDS011;38930;52.766;6.884;2022-09-09T08:26:36;10.98;;;5.28;;
53044;SDS011;38930;52.766;6.884;2022-09-09T08:29:08;6.95;;;4.63;;
53044;SDS011;38930;52.766;6.884;2022-09-09T08:31:36;9.98;;;4.60;;
53044;SDS011;38930;52.766;6.884;2022-09-09T08:34:04;8.73;;;4.13;;
53044;SDS011;38930;52.766;6.884;2022-09-09T08:36:34;10.23;;;4.25;;
53044;SDS011;38930;52.766;6.884;2022-09-09T08:39:02;8.27;;;3.55;;
53044;SDS011;38930;52.766;6.884;2022-09-09T08:44:10;7.63;;;3.22;;
53044;SDS011;38930;52.766;6.884;2022-09-09T08:49:48;8.15;;;3.55;;
53044;SDS011;38930;52.766;6.884;2022-09-09T08:52:25;8.40;;;3.70;;
53044;SDS011;38930;52.766;6.884;2022-09-09T08:57:53;9.32;;;3.53;;
53044;SDS011;38930;52.766;6.884;2022-09-09T09:00:22;7.15;;;3.17;;
53044;SDS011;38930;52.766;6.884;2022-09-09T09:02:58;9.02;;;3.40;;
53044;SDS011;38930;52.766;6.884;2022-09-09T09:08:45;7.05;;;2.80;;
53044;SDS011;38930;52.766;6.884;2022-09-09T09:11:18;8.18;;;3.03;;
53044;SDS011;38930;52.766;6.884;2022-09-09T09:13:58;6.07;;;3.00;;
53044;SDS011;38930;52.766;6.884;2022-09-09T09:19:08;7.80;;;3.17;;
53044;SDS011;38930;52.766;6.884;2022-09-09T09:21:41;7.85;;;2.78;;
53044;SDS011;38930;52.766;6.884;2022-09-09T09:24:20;11.02;;;3.13;;
53044;SDS011;38930;52.766;6.884;2022-09-09T09:26:50;5.88;;;2.55;;
53044;SDS011;38930;52.766;6.884;2022-09-09T09:29:18;7.03;;;2.60;;
53044;SDS011;38930;52.766;6.884;2022-09-09T09:31:48;7.55;;;2.88;;
53044;SDS011;38930;52.766;6.884;2022-09-09T09:34:17;7.60;;;2.80;;
53044;SDS011;38930;52.766;6.884;2022-09-09T09:36:51;6.93;;;2.57;;
53044;SDS011;38930;52.766;6.884;2022-09-09T09:39:24;8.68;;;2.55;;
53044;SDS011;38930;52.766;6.884;2022-09-09T09:46:51;5.15;;;2.03;;
53044;SDS011;38930;52.766;6.884;2022-09-09T09:49:18;8.90;;;2.70;;
53044;SDS011;38930;52.766;6.884;2022-09-09T09:51:43;7.57;;;2.10;;
53044;SDS011;38930;52.766;6.884;2022-09-09T09:56:38;5.78;;;2.13;;
53044;SDS011;38930;52.766;6.884;2022-09-09T09:59:05;8.00;;;2.42;;
53044;SDS011;38930;52.766;6.884;2022-09-09T10:01:31;8.90;;;2.50;;
53044;SDS011;38930;52.766;6.884;2022-09-09T10:03:59;11.27;;;2.38;;
53044;SDS011;38930;52.766;6.884;2022-09-09T10:06:34;8.52;;;2.05;;
53044;SDS011;38930;52.766;6.884;2022-09-09T10:09:03;5.60;;;2.05;;
53044;SDS011;38930;52.766;6.884;2022-09-09T10:23:09;6.47;;;2.03;;
53044;SDS011;38930;52.766;6.884;2022-09-09T10:26:03;4.80;;;1.55;;
53044;SDS011;38930;52.766;6.884;2022-09-09T10:36:21;6.07;;;1.52;;
53044;SDS011;38930;52.766;6.884;2022-09-09T10:39:04;5.60;;;1.83;;
53044;SDS011;38930;52.766;6.884;2022-09-09T10:55:43;6.72;;;1.50;;
53044;SDS011;38930;52.766;6.884;2022-09-09T11:00:54;4.15;;;1.40;;
53044;SDS011;38930;52.766;6.884;2022-09-09T11:03:27;6.60;;;1.80;;
53044;SDS011;38930;52.766;6.884;2022-09-09T11:06:05;5.43;;;1.30;;
53044;SDS011;38930;52.766;6.884;2022-09-09T11:08:36;5.00;;;1.42;;
53044;SDS011;38930;52.766;6.884;2022-09-09T11:16:28;10.10;;;2.72;;
53044;SDS011;38930;52.766;6.884;2022-09-09T11:19:02;7.88;;;1.70;;
53044;SDS011;38930;52.766;6.884;2022-09-09T11:21:37;6.10;;;1.63;;
53044;SDS011;38930;52.766;6.884;2022-09-09T11:24:18;4.78;;;1.50;;
53044;SDS011;38930;52.766;6.884;2022-09-09T11:26:54;5.45;;;1.45;;
53044;SDS011;38930;52.766;6.884;2022-09-09T11:40:43;7.43;;;1.75;;
53044;SDS011;38930;52.766;6.884;2022-09-09T11:43:14;6.57;;;1.67;;
53044;SDS011;38930;52.766;6.884;2022-09-09T11:45:50;4.07;;;1.40;;
53044;SDS011;38930;52.766;6.884;2022-09-09T11:48:22;5.88;;;1.27;;
53044;SDS011;38930;52.766;6.884;2022-09-09T11:51:29;8.38;;;1.30;;
53044;SDS011;38930;52.766;6.884;2022-09-09T11:53:59;9.02;;;1.77;;
53044;SDS011;38930;52.766;6.884;2022-09-09T11:56:45;4.93;;;1.48;;
53044;SDS011;38930;52.766;6.884;2022-09-09T11:59:21;4.13;;;1.40;;
53044;SDS011;38930;52.766;6.884;2022-09-09T12:02:02;6.53;;;1.48;;
53044;SDS011;38930;52.766;6.884;2022-09-09T12:04:47;5.07;;;1.63;;
53044;SDS011;38930;52.766;6.884;2022-09-09T12:07:30;4.25;;;1.40;;
53044;SDS011;38930;52.766;6.884;2022-09-09T12:12:51;5.10;;;1.38;;
53044;SDS011;38930;52.766;6.884;2022-09-09T12:15:21;4.90;;;1.30;;
53044;SDS011;38930;52.766;6.884;2022-09-09T12:17:53;4.50;;;1.27;;
53044;SDS011;38930;52.766;6.884;2022-09-09T12:23:05;4.70;;;1.50;;
53044;SDS011;38930;52.766;6.884;2022-09-09T12:26:02;3.63;;;1.10;;
53044;SDS011;38930;52.766;6.884;2022-09-09T12:33:49;6.18;;;1.27;;
53044;SDS011;38930;52.766;6.884;2022-09-09T12:36:18;4.75;;;1.00;;
53044;SDS011;38930;52.766;6.884;2022-09-09T12:38:47;5.05;;;1.30;;
53044;SDS011;38930;52.766;6.884;2022-09-09T12:41:26;5.53;;;1.10;;
53044;SDS011;38930;52.766;6.884;2022-09-09T12:44:06;3.83;;;1.20;;
53044;SDS011;38930;52.766;6.884;2022-09-09T12:46:43;5.15;;;1.20;;
53044;SDS011;38930;52.766;6.884;2022-09-09T12:49:28;4.40;;;1.63;;
53044;SDS011;38930;52.766;6.884;2022-09-09T12:52:04;6.63;;;1.40;;
53044;SDS011;38930;52.766;6.884;2022-09-09T12:54:34;3.58;;;1.40;;
53044;SDS011;38930;52.766;6.884;2022-09-09T12:57:01;7.25;;;1.50;;
53044;SDS011;38930;52.766;6.884;2022-09-09T12:59:35;5.57;;;1.38;;
53044;SDS011;38930;52.766;6.884;2022-09-09T13:02:02;4.95;;;1.38;;
53044;SDS011;38930;52.766;6.884;2022-09-09T13:04:36;4.35;;;1.33;;
53044;SDS011;38930;52.766;6.884;2022-09-09T13:07:05;3.80;;;1.20;;
53044;SDS011;38930;52.766;6.884;2022-09-09T13:09:34;3.88;;;1.08;;
53044;SDS011;38930;52.766;6.884;2022-09-09T13:12:00;6.80;;;1.40;;
53044;SDS011;38930;52.766;6.884;2022-09-09T13:14:34;3.35;;;1.15;;
53044;SDS011;38930;52.766;6.884;2022-09-09T13:17:03;7.50;;;1.50;;
53044;SDS011;38930;52.766;6.884;2022-09-09T13:19:35;10.80;;;2.28;;
53044;SDS011;38930;52.766;6.884;2022-09-09T13:22:19;4.80;;;1.67;;
53044;SDS011;38930;52.766;6.884;2022-09-09T13:24:46;7.15;;;1.77;;
53044;SDS011;38930;52.766;6.884;2022-09-09T13:27:22;5.83;;;1.67;;
53044;SDS011;38930;52.766;6.884;2022-09-09T13:30:00;9.23;;;1.95;;
53044;SDS011;38930;52.766;6.884;2022-09-09T13:32:26;6.25;;;1.70;;
53044;SDS011;38930;52.766;6.884;2022-09-09T13:34:53;5.60;;;1.63;;
53044;SDS011;38930;52.766;6.884;2022-09-09T13:37:33;5.82;;;1.65;;
53044;SDS011;38930;52.766;6.884;2022-09-09T13:40:01;6.93;;;1.67;;
53044;SDS011;38930;52.766;6.884;2022-09-09T13:44:55;5.85;;;1.63;;
53044;SDS011;38930;52.766;6.884;2022-09-09T13:47:26;5.75;;;1.50;;
53044;SDS011;38930;52.766;6.884;2022-09-09T13:49:57;5.25;;;1.52;;
53044;SDS011;38930;52.766;6.884;2022-09-09T13:52:22;6.40;;;1.43;;
53044;SDS011;38930;52.766;6.884;2022-09-09T13:54:49;4.47;;;1.33;;
53044;SDS011;38930;52.766;6.884;2022-09-09T13:57:17;4.90;;;1.23;;
53044;SDS011;38930;52.766;6.884;2022-09-09T13:59:45;4.38;;;1.08;;
53044;SDS011;38930;52.766;6.884;2022-09-09T14:02:11;3.55;;;1.05;;
53044;SDS011;38930;52.766;6.884;2022-09-09T14:04:37;5.38;;;1.42;;
53044;SDS011;38930;52.766;6.884;2022-09-09T14:07:07;4.28;;;1.20;;
53044;SDS011;38930;52.766;6.884;2022-09-09T14:09:37;2.83;;;1.00;;
53044;SDS011;38930;52.766;6.884;2022-09-09T14:12:03;4.93;;;1.17;;
53044;SDS011;38930;52.766;6.884;2022-09-09T14:14:29;4.10;;;1.10;;
53044;SDS011;38930;52.766;6.884;2022-09-09T14:16:55;4.77;;;1.57;;
53044;SDS011;38930;52.766;6.884;2022-09-09T14:19:21;3.00;;;1.03;;
53044;SDS011;38930;52.766;6.884;2022-09-09T14:21:46;3.70;;;0.90;;
53044;SDS011;38930;52.766;6.884;2022-09-09T14:24:12;1.63;;;0.67;;
53044;SDS011;38930;52.766;6.884;2022-09-09T14:26:37;4.73;;;1.00;;
53044;SDS011;38930;52.766;6.884;2022-09-09T14:29:03;3.50;;;0.97;;
53044;SDS011;38930;52.766;6.884;2022-09-09T14:31:29;3.60;;;0.90;;
53044;SDS011;38930;52.766;6.884;2022-09-09T14:33:54;1.57;;;0.60;;
53044;SDS011;38930;52.766;6.884;2022-09-09T14:36:20;5.30;;;1.20;;
53044;SDS011;38930;52.766;6.884;2022-09-09T14:38:46;1.83;;;1.00;;
53044;SDS011;38930;52.766;6.884;2022-09-09T14:41:13;3.70;;;0.80;;
53044;SDS011;38930;52.766;6.884;2022-09-09T14:43:41;1.60;;;0.80;;
53044;SDS011;38930;52.766;6.884;2022-09-09T14:46:08;2.67;;;0.90;;
53044;SDS011;38930;52.766;6.884;2022-09-09T14:48:36;2.17;;;0.98;;
53044;SDS011;38930;52.766;6.884;2022-09-09T14:51:09;3.60;;;1.20;;
53044;SDS011;38930;52.766;6.884;2022-09-09T14:53:36;3.83;;;1.20;;
53044;SDS011;38930;52.766;6.884;2022-09-09T14:56:03;5.25;;;1.33;;
53044;SDS011;38930;52.766;6.884;2022-09-09T14:58:38;3.67;;;1.20;;
53044;SDS011;38930;52.766;6.884;2022-09-09T15:01:14;3.50;;;1.03;;
53044;SDS011;38930;52.766;6.884;2022-09-09T15:03:42;2.78;;;1.20;;
53044;SDS011;38930;52.766;6.884;2022-09-09T15:06:13;3.80;;;1.15;;
53044;SDS011;38930;52.766;6.884;2022-09-09T15:08:42;4.03;;;1.30;;
53044;SDS011;38930;52.766;6.884;2022-09-09T15:11:10;2.47;;;1.10;;
53044;SDS011;38930;52.766;6.884;2022-09-09T15:13:37;4.72;;;1.20;;
53044;SDS011;38930;52.766;6.884;2022-09-09T15:16:09;1.90;;;1.17;;
53044;SDS011;38930;52.766;6.884;2022-09-09T15:18:34;2.88;;;1.20;;
53044;SDS011;38930;52.766;6.884;2022-09-09T15:21:01;2.10;;;1.00;;
53044;SDS011;38930;52.766;6.884;2022-09-09T15:23:31;4.63;;;1.10;;
53044;SDS011;38930;52.766;6.884;2022-09-09T15:25:57;3.83;;;1.40;;
53044;SDS011;38930;52.766;6.884;2022-09-09T15:28:23;2.97;;;1.20;;
53044;SDS011;38930;52.766;6.884;2022-09-09T15:30:49;4.80;;;1.73;;
53044;SDS011;38930;52.766;6.884;2022-09-09T15:33:17;3.28;;;1.20;;
53044;SDS011;38930;52.766;6.884;2022-09-09T15:35:43;4.50;;;1.25;;
53044;SDS011;38930;52.766;6.884;2022-09-09T15:38:09;3.77;;;1.50;;
53044;SDS011;38930;52.766;6.884;2022-09-09T15:40:35;2.35;;;1.08;;
53044;SDS011;38930;52.766;6.884;2022-09-09T15:43:01;3.80;;;1.40;;
53044;SDS011;38930;52.766;6.884;2022-09-09T15:45:28;3.72;;;1.15;;
53044;SDS011;38930;52.766;6.884;2022-09-09T15:47:56;6.32;;;1.50;;
53044;SDS011;38930;52.766;6.884;2022-09-09T15:50:21;5.57;;;1.70;;
53044;SDS011;38930;52.766;6.884;2022-09-09T15:52:53;2.70;;;1.25;;
53044;SDS011;38930;52.766;6.884;2022-09-09T15:55:19;4.53;;;1.40;;
53044;SDS011;38930;52.766;6.884;2022-09-09T15:57:45;4.43;;;1.37;;
53044;SDS011;38930;52.766;6.884;2022-09-09T16:00:12;2.72;;;1.02;;
53044;SDS011;38930;52.766;6.884;2022-09-09T16:02:38;2.75;;;1.35;;
53044;SDS011;38930;52.766;6.884;2022-09-09T16:05:04;3.40;;;1.40;;
53044;SDS011;38930;52.766;6.884;2022-09-09T16:07:31;2.40;;;1.13;;
53044;SDS011;38930;52.766;6.884;2022-09-09T16:09:56;4.87;;;1.27;;
53044;SDS011;38930;52.766;6.884;2022-09-09T16:12:22;2.87;;;1.23;;
53044;SDS011;38930;52.766;6.884;2022-09-09T16:14:47;2.90;;;1.40;;
53044;SDS011;38930;52.766;6.884;2022-09-09T16:17:13;4.13;;;1.70;;
53044;SDS011;38930;52.766;6.884;2022-09-09T16:22:05;2.40;;;1.20;;
53044;SDS011;38930;52.766;6.884;2022-09-09T16:24:31;3.93;;;1.40;;
53044;SDS011;38930;52.766;6.884;2022-09-09T16:26:57;5.47;;;1.35;;
53044;SDS011;38930;52.766;6.884;2022-09-09T16:29:23;4.23;;;1.30;;
53044;SDS011;38930;52.766;6.884;2022-09-09T16:31:51;4.22;;;1.63;;
53044;SDS011;38930;52.766;6.884;2022-09-09T16:34:16;3.87;;;1.50;;
53044;SDS011;38930;52.766;6.884;2022-09-09T16:39:11;4.25;;;1.33;;
53044;SDS011;38930;52.766;6.884;2022-09-09T16:41:38;3.20;;;1.20;;
53044;SDS011;38930;52.766;6.884;2022-09-09T16:44:06;3.92;;;1.40;;
53044;SDS011;38930;52.766;6.884;2022-09-09T16:46:34;5.00;;;1.50;;
53044;SDS011;38930;52.766;6.884;2022-09-09T16:49:04;4.65;;;1.67;;
53044;SDS011;38930;52.766;6.884;2022-09-09T16:51:32;5.03;;;1.50;;
53044;SDS011;38930;52.766;6.884;2022-09-09T16:54:02;4.68;;;1.73;;
53044;SDS011;38930;52.766;6.884;2022-09-09T16:56:31;2.92;;;1.30;;
53044;SDS011;38930;52.766;6.884;2022-09-09T16:58:59;3.47;;;1.20;;
53044;SDS011;38930;52.766;6.884;2022-09-09T17:01:30;4.97;;;1.27;;
53044;SDS011;38930;52.766;6.884;2022-09-09T17:03:58;2.45;;;0.95;;
53044;SDS011;38930;52.766;6.884;2022-09-09T17:06:26;3.83;;;1.40;;
53044;SDS011;38930;52.766;6.884;2022-09-09T17:08:57;5.20;;;1.30;;
53044;SDS011;38930;52.766;6.884;2022-09-09T17:11:26;3.13;;;1.20;;
53044;SDS011;38930;52.766;6.884;2022-09-09T17:13:52;3.30;;;1.20;;
53044;SDS011;38930;52.766;6.884;2022-09-09T17:16:20;2.67;;;1.05;;
53044;SDS011;38930;52.766;6.884;2022-09-09T17:18:47;2.53;;;1.10;;
53044;SDS011;38930;52.766;6.884;2022-09-09T17:21:14;3.17;;;1.13;;
53044;SDS011;38930;52.766;6.884;2022-09-09T17:23:43;2.63;;;1.05;;
53044;SDS011;38930;52.766;6.884;2022-09-09T17:26:11;3.63;;;1.20;;